Startpagina
METAR-TAF:

METAR-TAF

Vliegvelden :

Rarotonga, Cookeilanden

breedte: 21-12S, lengte: 159-49W, hoogte: 7 m

Actueel weer

Dit bericht is 17 minuten geleden gemaakt, om 23:00 UTC
Wind 15 kt uit het oostnoordoosten
Temperatuur 27°C
Vochtigheid 79%
Druk 1015 hPa
Zicht 10 km of meer

METAR: NCRG 172300Z AUTO 07015KT 9999 SCT022/// SCT036/// 27/23 Q1015

Tijdstip: 13:17 (23:17 UTC)

Verwachting

Dit bericht is 6 uur en het 8 minuten geleden gemaakt, om 17:09 UTC
Verwachting geldig van 17 om 18 UTC tot 18 om 18 UTC
Wind 7 kt uit het oosten
Zicht 10 km of meer
Verspreide wolken op 2200 ft

TAF: NCRG 171709Z 1718/1818 10007KT 9999 SCT022

Waarnemingen en weersverwachtingen van meer dan 4000 vliegvelden (METAR en TAF).

De beschikbare stations zijn de gele en rode punten op de kaart.

Ga met uw muis naar het station om de naam te zien.

Klik dan om waarnemingen en weersverwachtingen te zien.

kaart wijzigen: klik op de groene knoppen met een zwart kruis om in te zoomen, op de groene knop met een streepje om uit te zoomen of op de groene pijlen voor aangrenzende kaarten.


METAR-TAF: